Zaliv Amerika — C4ZR2 — position and weather

sailwx.info

Track history (hours):
 
Tides and Currents Weather Stations Pressure Air Temp Water Temp Dewpoint Dewpoint Depression Visibility Wind Speed Wind Dir Waves Ship Positions

Zaliv Amerika

Last reported at 2014-Oct-23 07:13 UTC. Time now 2014-Oct-23 18:39 UTC.
Position N 01°12' E 103°39'.

Length 243 m; draft 8.4 m.

Type: Tanker. MMSI: 210435000.

Date/timePositionNaut miles runAvg speedWind from/ knotsBaromVisibWave heightAir tempDewpointWater temp
2014-Oct-23 07:13N 01°12' E 103°39'6 5.8
2014-Oct-23 06:10N 01°18' E 103°41'0 0.2
2014-Oct-23 05:14N 01°18' E 103°41'0 0.0
2014-Oct-23 02:13N 01°18' E 103°41'0 0.0
2014-Oct-23 00:18N 01°18' E 103°41'0 0.0
2014-Oct-22 23:23N 01°18' E 103°41'0 0.0
2014-Oct-22 22:17N 01°18' E 103°41'0 0.0
2014-Oct-22 21:04N 01°18' E 103°41'0 0.0
2014-Oct-22 20:04N 01°18' E 103°41'0 0.0
2014-Oct-22 19:28N 01°18' E 103°41'0 0.0
2014-Oct-22 18:33N 01°18' E 103°41'0 0.0
2014-Oct-22 17:33N 01°18' E 103°41'0 0.0
2014-Oct-22 16:20N 01°18' E 103°41'0 0.0
2014-Oct-22 15:26N 01°18' E 103°41'0 0.0
2014-Oct-22 14:25N 01°18' E 103°41'0 0.0
2014-Oct-22 12:25N 01°18' E 103°41'0 0.0
2014-Oct-22 11:06N 01°18' E 103°41'0 0.0
2014-Oct-22 10:24N 01°18' E 103°41'7 0.2
2014-Oct-21 02:10N 01°11' E 103°42'0 0.0
2014-Oct-19 04:07N 01°11' E 103°42'4 2.6
2014-Oct-19 02:28N 01°15' E 103°43'2 0.3
2014-Oct-18 19:25N 01°17' E 103°44'0 0.0
2014-Oct-17 10:17N 01°17' E 103°44'0 0.0
2014-Oct-17 06:15N 01°17' E 103°44'0 0.0
2014-Oct-17 04:20N 01°17' E 103°44'0 0.0
2014-Oct-17 03:33N 01°17' E 103°44'2 2.3
2014-Oct-17 02:33N 01°15' E 103°45'6 0.1
2014-Oct-15 08:30N 01°10' E 103°41'9 9.3
2014-Oct-15 07:33N 01°11' E 103°50'1111.0
2014-Oct-15 06:33N 01°16' E 104°00'1211.1
2014-Oct-15 05:29N 01°17' E 104°12'  
Track history (hours):
 
Tides and Currents Weather Stations Pressure Air Temp Water Temp Dewpoint Dewpoint Depression Visibility Wind Speed Wind Dir Waves Ship Positions

Zaliv Amerika

Last reported at 2014-Oct-23 07:13 UTC. Time now 2014-Oct-23 18:39 UTC.
Position N 01°12' E 103°39'.

Length 243 m; draft 8.4 m.

Type: Tanker. MMSI: 210435000.

Date/timePositionNaut miles runAvg speedWind from/ knotsBaromVisibWave heightAir tempDewpointWater temp
2014-Oct-23 07:13N 01°12' E 103°39'6 5.8
2014-Oct-23 06:10N 01°18' E 103°41'0 0.2
2014-Oct-23 05:14N 01°18' E 103°41'0 0.0
2014-Oct-23 02:13N 01°18' E 103°41'0 0.0
2014-Oct-23 00:18N 01°18' E 103°41'0 0.0
2014-Oct-22 23:23N 01°18' E 103°41'0 0.0
2014-Oct-22 22:17N 01°18' E 103°41'0 0.0
2014-Oct-22 21:04N 01°18' E 103°41'0 0.0
2014-Oct-22 20:04N 01°18' E 103°41'0 0.0
2014-Oct-22 19:28N 01°18' E 103°41'0 0.0
2014-Oct-22 18:33N 01°18' E 103°41'0 0.0
2014-Oct-22 17:33N 01°18' E 103°41'0 0.0
2014-Oct-22 16:20N 01°18' E 103°41'0 0.0
2014-Oct-22 15:26N 01°18' E 103°41'0 0.0
2014-Oct-22 14:25N 01°18' E 103°41'0 0.0
2014-Oct-22 12:25N 01°18' E 103°41'0 0.0
2014-Oct-22 11:06N 01°18' E 103°41'0 0.0
2014-Oct-22 10:24N 01°18' E 103°41'7 0.2
2014-Oct-21 02:10N 01°11' E 103°42'0 0.0
2014-Oct-19 04:07N 01°11' E 103°42'4 2.6
2014-Oct-19 02:28N 01°15' E 103°43'2 0.3
2014-Oct-18 19:25N 01°17' E 103°44'0 0.0
2014-Oct-17 10:17N 01°17' E 103°44'0 0.0
2014-Oct-17 06:15N 01°17' E 103°44'0 0.0
2014-Oct-17 04:20N 01°17' E 103°44'0 0.0
2014-Oct-17 03:33N 01°17' E 103°44'2 2.3
2014-Oct-17 02:33N 01°15' E 103°45'6 0.1
2014-Oct-15 08:30N 01°10' E 103°41'9 9.3
2014-Oct-15 07:33N 01°11' E 103°50'1111.0
2014-Oct-15 06:33N 01°16' E 104°00'1211.1
2014-Oct-15 05:29N 01°17' E 104°12'  

Dump ship's entire track history